createdAt,value
2022-10-08T00:01:31.046Z,10.15
2022-10-08T00:03:59.586Z,10.20
2022-10-08T00:06:30.471Z,10.13
2022-10-08T00:09:02.332Z,9.98
2022-10-08T00:11:33.038Z,10.75
2022-10-08T00:14:02.648Z,9.65
2022-10-08T00:16:33.261Z,10.52
2022-10-08T00:19:03.874Z,10.20
2022-10-08T00:21:33.596Z,10.05
2022-10-08T00:24:05.193Z,9.98
2022-10-08T00:26:38.554Z,10.18
2022-10-08T00:29:09.810Z,9.77
2022-10-08T00:31:40.588Z,10.65
2022-10-08T00:34:12.345Z,11.18
2022-10-08T00:36:42.348Z,10.88
2022-10-08T00:39:15.218Z,10.60
2022-10-08T00:41:45.278Z,10.23
2022-10-08T00:44:54.220Z,10.80
2022-10-08T00:47:31.358Z,11.20
2022-10-08T00:50:02.334Z,10.88
2022-10-08T00:52:35.023Z,10.15
2022-10-08T00:55:08.296Z,11.15
2022-10-08T00:57:38.429Z,11.27
2022-10-08T01:00:09.291Z,12.43
2022-10-08T01:02:37.935Z,11.10
2022-10-08T01:05:07.545Z,12.18
2022-10-08T01:07:43.276Z,11.15
2022-10-08T01:10:22.250Z,11.68
2022-10-08T01:13:09.137Z,11.85
2022-10-08T01:15:45.685Z,11.82
2022-10-08T01:18:23.364Z,11.77
2022-10-08T01:21:03.836Z,11.65
2022-10-08T01:24:04.693Z,12.25
2022-10-08T01:26:45.972Z,11.02
2022-10-08T01:29:21.465Z,10.57
2022-10-08T01:31:55.193Z,11.57
2022-10-08T01:34:28.533Z,12.23
2022-10-08T01:36:59.031Z,11.23
2022-10-08T01:39:32.476Z,13.30
2022-10-08T01:42:01.979Z,12.15
2022-10-08T01:44:35.603Z,12.52
2022-10-08T01:47:08.331Z,10.90
2022-10-08T01:49:43.407Z,12.35
2022-10-08T01:52:18.918Z,11.55
2022-10-08T01:54:49.633Z,13.43
2022-10-08T01:57:17.777Z,12.25
2022-10-08T01:59:52.711Z,12.48
2022-10-08T02:02:23.517Z,11.15
2022-10-08T02:04:54.097Z,11.07
2022-10-08T02:07:25.120Z,12.23
2022-10-08T02:10:02.066Z,11.75
2022-10-08T02:12:31.311Z,11.13
2022-10-08T02:15:01.600Z,10.68
2022-10-08T02:17:40.785Z,11.88
2022-10-08T02:20:18.370Z,11.82
2022-10-08T02:22:53.617Z,12.10
2022-10-08T02:25:29.657Z,11.70
2022-10-08T02:28:09.187Z,13.05
2022-10-08T02:30:44.820Z,11.75
2022-10-08T02:33:16.901Z,13.75
2022-10-08T02:35:49.160Z,12.55
2022-10-08T02:38:22.355Z,12.98
2022-10-08T02:40:54.008Z,12.57
2022-10-08T02:43:27.011Z,12.30
2022-10-08T02:46:01.451Z,11.50
2022-10-08T02:48:32.042Z,11.55
2022-10-08T02:51:04.471Z,11.18
2022-10-08T02:53:33.951Z,10.68
2022-10-08T02:56:13.017Z,10.25
2022-10-08T02:58:41.756Z,11.02
2022-10-08T03:01:18.123Z,11.50
2022-10-08T03:03:51.288Z,11.57
2022-10-08T03:06:20.105Z,10.48
2022-10-08T03:08:50.301Z,13.93
2022-10-08T03:11:18.646Z,17.52
2022-10-08T03:13:49.633Z,16.55
2022-10-08T03:16:22.627Z,21.15
2022-10-08T03:18:52.518Z,20.40
2022-10-08T03:21:21.511Z,19.45
2022-10-08T03:23:49.874Z,21.00
2022-10-08T03:26:18.718Z,20.08
2022-10-08T03:28:46.892Z,21.20
2022-10-08T03:31:15.201Z,20.75
2022-10-08T03:33:44.757Z,19.65
2022-10-08T03:36:12.911Z,20.52
2022-10-08T03:38:41.152Z,20.92
2022-10-08T03:41:10.471Z,18.33
2022-10-08T03:43:38.648Z,21.80
2022-10-08T03:46:07.470Z,20.70
2022-10-08T03:48:36.236Z,21.73
2022-10-08T03:51:09.483Z,21.83
2022-10-08T03:53:39.927Z,23.48
2022-10-08T03:56:10.028Z,20.85
2022-10-08T03:58:38.314Z,21.48
2022-10-08T04:01:08.898Z,22.42
2022-10-08T04:03:37.226Z,22.95
2022-10-08T04:06:07.474Z,23.08
2022-10-08T04:08:36.574Z,21.42
2022-10-08T04:11:05.369Z,23.70
2022-10-08T04:13:34.260Z,21.08
2022-10-08T04:16:03.645Z,21.35
2022-10-08T04:18:32.326Z,24.23
2022-10-08T04:21:00.907Z,23.48
2022-10-08T04:23:33.191Z,23.38
2022-10-08T04:26:01.684Z,23.55
2022-10-08T04:28:31.485Z,22.80
2022-10-08T04:31:03.720Z,23.17
2022-10-08T04:33:33.857Z,23.58
2022-10-08T04:36:02.332Z,23.10
2022-10-08T04:38:31.954Z,24.58
2022-10-08T04:41:04.992Z,22.73
2022-10-08T04:43:33.425Z,22.20
2022-10-08T04:46:01.665Z,22.45
2022-10-08T04:48:30.188Z,22.67
2022-10-08T04:50:59.227Z,22.75
2022-10-08T04:53:27.868Z,22.52
2022-10-08T04:55:58.150Z,20.70
2022-10-08T04:58:27.340Z,21.30
2022-10-08T05:00:55.614Z,22.38
2022-10-08T05:03:23.854Z,21.38
2022-10-08T05:05:51.961Z,22.15
2022-10-08T05:08:20.220Z,23.02
2022-10-08T05:10:50.346Z,22.23
2022-10-08T05:13:20.121Z,22.55
2022-10-08T05:15:48.766Z,20.33
2022-10-08T05:18:17.335Z,20.67
2022-10-08T05:20:45.568Z,19.50
2022-10-08T05:23:13.932Z,21.58
2022-10-08T05:25:42.116Z,20.65
2022-10-08T05:28:10.286Z,21.38
2022-10-08T05:30:40.136Z,19.08
2022-10-08T05:33:08.211Z,20.00
2022-10-08T05:35:39.591Z,20.95
2022-10-08T05:38:07.744Z,20.45
2022-10-08T05:40:35.925Z,18.30
2022-10-08T05:43:04.117Z,18.70
2022-10-08T05:45:32.259Z,17.98
2022-10-08T05:48:01.983Z,19.27
2022-10-08T05:50:30.201Z,19.15
2022-10-08T05:52:58.393Z,19.90
2022-10-08T05:55:27.567Z,19.92
2022-10-08T05:57:55.765Z,17.80
2022-10-08T06:00:23.961Z,19.65
2022-10-08T06:02:52.195Z,19.83
2022-10-08T06:05:21.889Z,20.23
2022-10-08T06:07:50.128Z,19.60
2022-10-08T06:10:18.353Z,18.10
2022-10-08T06:12:49.847Z,18.40
2022-10-08T06:15:18.579Z,18.52
2022-10-08T06:17:46.790Z,18.80
2022-10-08T06:20:15.052Z,17.75
2022-10-08T06:22:44.837Z,20.25
2022-10-08T06:25:13.413Z,18.73
2022-10-08T06:27:41.854Z,18.52
2022-10-08T06:30:11.236Z,18.88
2022-10-08T06:32:39.373Z,19.30
2022-10-08T06:35:08.067Z,19.75
2022-10-08T06:37:36.763Z,18.95
2022-10-08T06:40:06.957Z,18.70
2022-10-08T06:42:35.163Z,16.05
2022-10-08T06:45:03.237Z,19.20
2022-10-08T06:47:31.387Z,17.42
2022-10-08T06:50:00.996Z,16.45
2022-10-08T06:52:29.722Z,15.85
2022-10-08T06:54:57.884Z,16.42
2022-10-08T06:57:27.497Z,16.55
2022-10-08T06:59:57.916Z,16.35
2022-10-08T07:02:26.155Z,15.63
2022-10-08T07:04:54.456Z,17.60
2022-10-08T07:07:22.636Z,15.52
2022-10-08T07:09:50.745Z,16.35
2022-10-08T07:12:19.021Z,15.63
2022-10-08T07:14:48.891Z,17.85
2022-10-08T07:17:17.019Z,18.73
2022-10-08T07:19:45.165Z,17.13
2022-10-08T07:22:13.337Z,17.05
2022-10-08T07:24:41.525Z,16.88
2022-10-08T07:27:09.660Z,17.95
2022-10-08T07:29:37.953Z,16.98
2022-10-08T07:32:07.665Z,17.67
2022-10-08T07:34:35.858Z,18.20
2022-10-08T07:37:04.073Z,17.45
2022-10-08T07:39:32.301Z,19.83
2022-10-08T07:42:00.591Z,18.88
2022-10-08T07:44:28.763Z,18.40
2022-10-08T07:46:56.983Z,18.60
2022-10-08T07:49:26.913Z,18.42
2022-10-08T07:51:55.046Z,16.92
2022-10-08T07:54:23.227Z,15.63
2022-10-08T07:56:51.485Z,17.98
2022-10-08T07:59:19.688Z,17.65
2022-10-08T08:01:47.814Z,16.38
2022-10-08T08:04:16.029Z,15.95
2022-10-08T08:06:48.728Z,16.23
2022-10-08T08:09:18.366Z,15.73
2022-10-08T08:11:47.387Z,15.73
2022-10-08T08:14:15.708Z,14.55
2022-10-08T08:16:44.034Z,14.20
2022-10-08T08:19:12.369Z,14.95
2022-10-08T08:21:40.642Z,14.15
2022-10-08T08:24:12.853Z,13.85
2022-10-08T08:26:43.545Z,14.07
2022-10-08T08:29:13.358Z,12.75
2022-10-08T08:31:43.832Z,12.57
2022-10-08T08:34:14.024Z,14.90
2022-10-08T08:36:44.913Z,14.60
2022-10-08T08:39:18.544Z,14.55
2022-10-08T08:42:21.522Z,14.98
2022-10-08T08:44:54.989Z,12.65
2022-10-08T08:47:27.089Z,15.13
2022-10-08T08:49:57.070Z,15.55
2022-10-08T08:52:29.075Z,14.20
2022-10-08T08:54:58.697Z,12.95
2022-10-08T08:57:36.916Z,13.32
2022-10-08T09:00:08.837Z,12.52
2022-10-08T09:02:41.853Z,13.00
2022-10-08T09:05:13.826Z,11.52
2022-10-08T09:07:47.021Z,11.50
2022-10-08T09:10:21.534Z,11.45
2022-10-08T09:12:53.180Z,10.32
2022-10-08T09:15:34.480Z,8.10
2022-10-08T09:18:04.489Z,6.78
2022-10-08T09:20:37.860Z,7.47
2022-10-08T09:23:15.103Z,9.35
2022-10-08T09:25:49.188Z,9.43
2022-10-08T09:28:40.685Z,9.23
2022-10-08T09:31:25.219Z,9.48
2022-10-08T09:34:00.922Z,10.30
2022-10-08T09:36:34.836Z,9.32
2022-10-08T09:39:05.008Z,9.27
2022-10-08T09:41:34.763Z,8.85
2022-10-08T09:44:17.693Z,10.25
2022-10-08T09:46:46.745Z,10.32
2022-10-08T09:49:32.798Z,11.10
2022-10-08T09:52:05.175Z,10.10
2022-10-08T09:54:38.487Z,9.77
2022-10-08T09:57:08.508Z,9.90
2022-10-08T09:59:42.842Z,10.43
2022-10-08T10:02:31.147Z,9.48
2022-10-08T10:05:00.357Z,9.70
2022-10-08T10:07:39.146Z,9.57
2022-10-08T10:10:15.828Z,10.38
2022-10-08T10:12:50.035Z,10.35
2022-10-08T10:15:23.890Z,10.18
2022-10-08T10:17:58.121Z,9.35
2022-10-08T10:20:31.855Z,9.07
2022-10-08T10:23:02.950Z,9.02
2022-10-08T10:25:40.040Z,9.40
2022-10-08T10:28:16.111Z,10.18
2022-10-08T10:30:52.661Z,8.50
2022-10-08T10:33:25.733Z,9.13
2022-10-08T10:35:57.214Z,8.85
2022-10-08T10:38:28.301Z,10.35
2022-10-08T10:41:07.188Z,9.85
2022-10-08T10:43:45.392Z,9.45
2022-10-08T10:46:37.850Z,10.13
2022-10-08T10:49:15.652Z,10.57
2022-10-08T10:51:58.607Z,9.38
2022-10-08T10:54:46.267Z,10.10
2022-10-08T10:57:37.594Z,8.40
2022-10-08T11:00:11.071Z,9.63
2022-10-08T11:02:45.517Z,8.23
2022-10-08T11:05:19.921Z,8.93
2022-10-08T11:08:03.730Z,9.98
2022-10-08T11:10:41.705Z,8.43
2022-10-08T11:13:22.310Z,9.32
2022-10-08T11:16:02.667Z,9.27
2022-10-08T11:18:38.246Z,9.98
2022-10-08T11:21:19.752Z,9.18
2022-10-08T11:24:13.505Z,9.45
2022-10-08T11:26:49.357Z,9.70
2022-10-08T11:29:21.366Z,9.93
2022-10-08T11:31:52.375Z,9.80
2022-10-08T11:34:24.974Z,9.20
2022-10-08T11:37:09.770Z,10.18
2022-10-08T11:39:48.409Z,10.00
2022-10-08T11:42:23.158Z,8.65
2022-10-08T11:44:51.668Z,9.60
2022-10-08T11:47:52.247Z,10.63
2022-10-08T11:50:31.154Z,9.63
2022-10-08T11:53:03.053Z,9.82
2022-10-08T11:55:33.815Z,11.10
2022-10-08T11:58:09.389Z,10.63
2022-10-08T12:00:43.030Z,11.73
2022-10-08T12:03:24.773Z,9.52
2022-10-08T12:05:55.405Z,10.13
2022-10-08T12:08:55.432Z,9.35
2022-10-08T12:11:50.846Z,10.00
2022-10-08T12:14:46.421Z,10.48
2022-10-08T12:17:15.056Z,11.27
2022-10-08T12:20:09.460Z,10.48
2022-10-08T12:22:47.197Z,10.85
2022-10-08T12:25:40.118Z,9.90
2022-10-08T12:28:50.309Z,10.10
2022-10-08T12:31:31.402Z,11.27
2022-10-08T12:34:02.577Z,10.85
2022-10-08T12:36:45.737Z,11.55
2022-10-08T12:39:23.233Z,9.63
2022-10-08T12:42:01.190Z,11.55
2022-10-08T12:44:41.331Z,10.77
2022-10-08T12:47:25.938Z,8.77
2022-10-08T12:50:02.027Z,9.38
2022-10-08T12:52:36.329Z,10.70
2022-10-08T12:55:06.349Z,10.82
2022-10-08T12:57:37.473Z,10.48
2022-10-08T13:00:10.176Z,10.30
2022-10-08T13:02:39.893Z,10.30
2022-10-08T13:05:26.004Z,9.27
2022-10-08T13:07:56.084Z,10.38
2022-10-08T13:10:26.015Z,9.88
2022-10-08T13:13:04.371Z,9.70
2022-10-08T13:15:33.608Z,10.18
2022-10-08T13:18:01.857Z,10.13
2022-10-08T13:20:32.651Z,10.77
2022-10-08T13:23:06.021Z,10.70
2022-10-08T13:25:40.722Z,9.68
2022-10-08T13:28:11.525Z,10.32
2022-10-08T13:30:40.068Z,10.85
2022-10-08T13:33:14.666Z,10.52
2022-10-08T13:35:44.066Z,11.73
2022-10-08T13:38:22.228Z,7.53
2022-10-08T13:40:52.360Z,6.00
2022-10-08T13:43:21.178Z,5.68
2022-10-08T13:45:52.400Z,3.63
2022-10-08T13:48:23.227Z,3.33
2022-10-08T13:50:53.366Z,2.65
2022-10-08T13:53:25.101Z,2.38
2022-10-08T13:55:53.504Z,3.00
2022-10-08T13:58:22.369Z,2.47
2022-10-08T14:00:50.862Z,5.20
2022-10-08T14:03:19.331Z,4.53
2022-10-08T14:05:49.312Z,5.15
2022-10-08T14:08:19.258Z,3.88
2022-10-08T14:10:49.101Z,2.58
2022-10-08T14:13:17.815Z,2.88
2022-10-08T14:15:48.393Z,2.72
2022-10-08T14:18:16.586Z,2.70
2022-10-08T14:20:44.880Z,2.65
2022-10-08T14:23:14.559Z,3.50
2022-10-08T14:25:42.848Z,2.70
2022-10-08T14:28:12.570Z,2.75
2022-10-08T14:30:40.736Z,2.97
2022-10-08T14:33:11.454Z,2.55
2022-10-08T14:35:40.064Z,2.60
2022-10-08T14:38:08.917Z,2.72
2022-10-08T14:40:37.317Z,2.45
2022-10-08T14:43:05.604Z,6.47
2022-10-08T14:45:35.340Z,4.40
2022-10-08T14:48:03.564Z,3.15
2022-10-08T14:50:31.733Z,3.72
2022-10-08T14:52:59.924Z,6.75
2022-10-08T14:55:28.128Z,7.50
2022-10-08T14:57:56.313Z,7.07
2022-10-08T15:00:24.460Z,6.95
2022-10-08T15:02:54.167Z,7.88
2022-10-08T15:05:22.333Z,7.13
2022-10-08T15:07:50.833Z,7.05
2022-10-08T15:10:19.321Z,4.75
2022-10-08T15:12:47.755Z,7.65
2022-10-08T15:15:18.630Z,5.90
2022-10-08T15:17:47.145Z,6.95
2022-10-08T15:20:17.176Z,3.95
2022-10-08T15:22:45.531Z,3.38
2022-10-08T15:25:14.142Z,5.78
2022-10-08T15:27:42.473Z,5.45
2022-10-08T15:30:12.286Z,3.20
2022-10-08T15:32:40.481Z,6.00
2022-10-08T15:35:09.147Z,6.03
2022-10-08T15:37:38.898Z,8.43
2022-10-08T15:40:08.065Z,9.70
2022-10-08T15:42:38.123Z,10.45
2022-10-08T15:45:09.228Z,9.93
2022-10-08T15:47:37.405Z,8.93
2022-10-08T15:50:08.282Z,10.27
2022-10-08T15:52:36.461Z,9.65
2022-10-08T15:55:07.059Z,9.38
2022-10-08T15:57:35.302Z,9.82
2022-10-08T16:00:03.572Z,9.70
2022-10-08T16:02:31.709Z,9.85
2022-10-08T16:04:59.864Z,8.88
2022-10-08T16:07:27.968Z,9.90
2022-10-08T16:09:56.162Z,9.70
2022-10-08T16:12:25.952Z,11.93
2022-10-08T16:14:54.185Z,10.70
2022-10-08T16:17:22.307Z,11.20
2022-10-08T16:19:51.005Z,11.82
2022-10-08T16:22:19.081Z,11.15
2022-10-08T16:24:47.246Z,10.27
2022-10-08T16:27:15.530Z,11.10
2022-10-08T16:29:45.142Z,12.05
2022-10-08T16:32:13.334Z,10.75
2022-10-08T16:34:44.865Z,11.50
2022-10-08T16:37:13.536Z,11.38
2022-10-08T16:39:41.696Z,11.93
2022-10-08T16:42:09.989Z,10.75
2022-10-08T16:44:38.160Z,11.68
2022-10-08T16:47:07.935Z,12.27
2022-10-08T16:49:36.348Z,12.02
2022-10-08T16:52:08.230Z,14.25
2022-10-08T16:54:36.592Z,14.00
2022-10-08T16:57:05.050Z,12.55
2022-10-08T16:59:33.158Z,15.23
2022-10-08T17:02:02.499Z,15.05
2022-10-08T17:04:39.206Z,12.80
2022-10-08T17:07:08.216Z,12.73
2022-10-08T17:09:37.054Z,12.27
2022-10-08T17:12:05.422Z,12.88
2022-10-08T17:14:34.501Z,14.15
2022-10-08T17:17:02.790Z,13.50
2022-10-08T17:19:32.888Z,13.68
2022-10-08T17:22:00.952Z,13.40
2022-10-08T17:24:29.064Z,12.50
2022-10-08T17:26:57.314Z,10.20
2022-10-08T17:29:25.522Z,11.30
2022-10-08T17:31:55.843Z,11.57
2022-10-08T17:34:24.432Z,13.13
2022-10-08T17:37:02.011Z,13.65
2022-10-08T17:39:31.982Z,13.88
2022-10-08T17:42:03.625Z,15.05
2022-10-08T17:44:36.452Z,15.30
2022-10-08T17:47:10.572Z,7.55
2022-10-08T17:49:38.797Z,8.65
2022-10-08T17:52:08.670Z,9.75
2022-10-08T17:54:36.994Z,6.78
2022-10-08T17:57:05.229Z,7.10
2022-10-08T17:59:33.418Z,7.43
2022-10-08T18:02:07.652Z,8.10
2022-10-08T18:04:35.907Z,7.43
2022-10-08T18:07:04.261Z,7.47
2022-10-08T18:09:33.896Z,7.80
2022-10-08T18:12:02.117Z,5.97
2022-10-08T18:14:30.327Z,5.40
2022-10-08T18:16:58.669Z,4.50
2022-10-08T18:19:26.914Z,4.53
2022-10-08T18:21:55.262Z,5.53
2022-10-08T18:24:23.689Z,5.60
2022-10-08T18:26:53.365Z,5.20
2022-10-08T18:29:21.642Z,5.50
2022-10-08T18:31:49.786Z,5.20
2022-10-08T18:34:19.174Z,5.03
2022-10-08T18:36:47.973Z,4.47
2022-10-08T18:39:17.756Z,6.13
2022-10-08T18:41:48.289Z,5.20
2022-10-08T18:44:19.919Z,5.30
2022-10-08T18:46:48.487Z,6.15
2022-10-08T18:49:19.055Z,5.70
2022-10-08T18:51:49.782Z,5.25
2022-10-08T18:54:18.242Z,5.03
2022-10-08T18:56:46.417Z,5.45
2022-10-08T18:59:16.460Z,6.07
2022-10-08T19:01:48.006Z,5.38
2022-10-08T19:04:18.592Z,5.30
2022-10-08T19:06:47.804Z,6.38
2022-10-08T19:09:16.324Z,5.32
2022-10-08T19:11:46.661Z,5.88
2022-10-08T19:14:16.953Z,6.22
2022-10-08T19:16:49.912Z,6.88
2022-10-08T19:19:19.902Z,6.47
2022-10-08T19:21:48.500Z,6.13
2022-10-08T19:24:18.449Z,5.90
2022-10-08T19:26:47.704Z,7.28
2022-10-08T19:29:17.829Z,8.30
2022-10-08T19:31:48.704Z,7.90
2022-10-08T19:34:18.361Z,8.10
2022-10-08T19:36:46.717Z,8.52
2022-10-08T19:39:16.557Z,7.63
2022-10-08T19:41:45.498Z,9.25
2022-10-08T19:44:14.519Z,9.52
2022-10-08T19:46:42.800Z,8.50
2022-10-08T19:49:12.968Z,10.05
2022-10-08T19:51:41.505Z,7.35
2022-10-08T19:54:09.796Z,7.43
2022-10-08T19:56:40.907Z,8.07
2022-10-08T19:59:11.212Z,6.85
2022-10-08T20:01:41.293Z,7.10
2022-10-08T20:04:11.957Z,8.20
2022-10-08T20:06:42.201Z,6.25
2022-10-08T20:09:13.040Z,7.75
2022-10-08T20:11:42.591Z,7.00
2022-10-08T20:14:11.484Z,6.57
2022-10-08T20:16:41.609Z,6.65
2022-10-08T20:19:17.632Z,6.60
2022-10-08T20:21:46.674Z,6.47
2022-10-08T20:24:15.322Z,6.15
2022-10-08T20:26:44.669Z,6.28
2022-10-08T20:29:14.592Z,5.28
2022-10-08T20:31:44.405Z,5.63
2022-10-08T20:34:17.793Z,5.45
2022-10-08T20:36:46.664Z,5.43
2022-10-08T20:39:16.279Z,5.13
2022-10-08T20:41:45.237Z,4.82
2022-10-08T20:44:13.588Z,5.75
2022-10-08T20:46:41.900Z,4.57
2022-10-08T20:49:12.361Z,4.95
2022-10-08T20:51:43.232Z,5.00
2022-10-08T20:54:12.979Z,5.22
2022-10-08T20:56:42.521Z,5.15
2022-10-08T20:59:11.903Z,4.70
2022-10-08T21:01:40.435Z,4.85
2022-10-08T21:04:09.250Z,3.90
2022-10-08T21:06:40.976Z,4.28
2022-10-08T21:09:11.143Z,4.65
2022-10-08T21:11:40.344Z,3.85
2022-10-08T21:14:09.868Z,4.40
2022-10-08T21:16:40.511Z,4.40
2022-10-08T21:19:18.316Z,4.03
2022-10-08T21:21:46.705Z,4.72
2022-10-08T21:24:17.172Z,4.22
2022-10-08T21:26:45.709Z,4.00
2022-10-08T21:29:15.326Z,4.55
2022-10-08T21:31:43.874Z,4.78
2022-10-08T21:34:13.084Z,4.68
2022-10-08T21:36:42.403Z,4.13
2022-10-08T21:39:16.805Z,4.05
2022-10-08T21:41:45.767Z,4.22
2022-10-08T21:44:14.655Z,3.63
2022-10-08T21:46:44.314Z,3.78
2022-10-08T21:49:14.218Z,3.40
2022-10-08T21:51:42.782Z,3.83
2022-10-08T21:54:12.027Z,3.33
2022-10-08T21:56:43.837Z,4.30
2022-10-08T21:59:14.871Z,3.85
2022-10-08T22:01:45.407Z,4.15
2022-10-08T22:04:15.088Z,4.07
2022-10-08T22:06:45.330Z,3.45
2022-10-08T22:09:15.152Z,4.13
2022-10-08T22:11:44.977Z,4.18
2022-10-08T22:14:13.232Z,4.00
2022-10-08T22:16:41.550Z,4.20
2022-10-08T22:19:09.853Z,3.42
2022-10-08T22:21:38.465Z,3.97
2022-10-08T22:24:06.994Z,3.63
2022-10-08T22:26:37.499Z,3.33
2022-10-08T22:29:12.395Z,4.03
2022-10-08T22:31:41.035Z,3.40
2022-10-08T22:34:09.374Z,3.25
2022-10-08T22:36:41.643Z,5.03
2022-10-08T22:39:10.331Z,3.58
2022-10-08T22:41:39.392Z,3.58
2022-10-08T22:44:09.079Z,4.43
2022-10-08T22:46:39.148Z,3.60
2022-10-08T22:49:09.692Z,3.85
2022-10-08T22:51:38.763Z,4.25
2022-10-08T22:54:07.831Z,3.88
2022-10-08T22:56:36.020Z,3.67
2022-10-08T22:59:04.208Z,3.90
2022-10-08T23:01:36.720Z,3.85
2022-10-08T23:04:04.894Z,3.95
2022-10-08T23:06:34.685Z,4.38
2022-10-08T23:09:04.920Z,4.13
2022-10-08T23:11:33.357Z,4.38
2022-10-08T23:14:02.520Z,3.97
2022-10-08T23:16:33.842Z,3.95
2022-10-08T23:19:04.314Z,4.38
2022-10-08T23:21:32.936Z,4.50
2022-10-08T23:24:02.501Z,4.10
2022-10-08T23:26:34.858Z,3.92
2022-10-08T23:29:05.289Z,4.07
2022-10-08T23:31:37.480Z,3.50
2022-10-08T23:34:06.969Z,4.75
2022-10-08T23:36:36.476Z,4.22
2022-10-08T23:39:06.057Z,3.55
2022-10-08T23:41:34.550Z,4.22
2022-10-08T23:44:03.061Z,4.32
2022-10-08T23:46:31.839Z,3.42
2022-10-08T23:49:01.848Z,3.88
2022-10-08T23:51:32.136Z,3.95
2022-10-08T23:54:01.618Z,3.70
2022-10-08T23:56:30.529Z,3.33
2022-10-08T23:58:59.297Z,3.58
